Tasman Mariner — VRWW8 — position and weather

sailwx.info

Track history (hours):
 
Tides and Currents Weather Stations Pressure Air Temp Water Temp Dewpoint Dewpoint Depression Visibility Wind Speed Wind Dir Waves Ship Positions

Tasman Mariner

Last reported at 2015-Aug-19 21:19 UTC. Time now 2015-Aug-30 07:55 UTC.
Position N 01°15' E 104°04'.
Warning: this ship's position is 10 days out of date.

Length 184 m; beam 27 m; draft 10 m.

Type: Cargo ship. MMSI: 477860000.

Date/timePositionNaut miles runAvg speedWind from/ knotsBaromVisibWave heightAir tempDewpointWater temp
2015-Aug-19 21:19N 01°15' E 104°04'1215.5
2015-Aug-19 20:33N 01°12' E 103°52'15115.1
2015-Aug-19 10:33N 02°23' E 101°39'3015.2
2015-Aug-19 08:34N 02°41' E 101°15'17 8.1
2015-Aug-19 06:31N 02°57' E 101°18'0 0.0
2015-Aug-19 04:31N 02°57' E 101°18'0 0.0
2015-Aug-19 01:31N 02°57' E 101°18'0 0.0
2015-Aug-18 23:31N 02°57' E 101°18'0 0.0
2015-Aug-18 21:31N 02°57' E 101°18'0 0.0
2015-Aug-18 19:31N 02°57' E 101°18'0 0.0
2015-Aug-18 17:28N 02°57' E 101°18'0 0.0
2015-Aug-18 14:31N 02°57' E 101°18'0 0.0
2015-Aug-18 09:28N 02°57' E 101°18'0 0.0
2015-Aug-18 07:31N 02°57' E 101°18'0 0.0
2015-Aug-18 04:25N 02°57' E 101°18'0 0.0
2015-Aug-18 04:10N 02°57' E 101°18'0 0.0
2015-Aug-18 03:22N 02°57' E 101°18'0 0.0
2015-Aug-18 01:31N 02°57' E 101°18'0 0.0
2015-Aug-17 23:31N 02°57' E 101°18'0 0.0
2015-Aug-17 20:31N 02°57' E 101°18'0 0.0
2015-Aug-17 18:28N 02°57' E 101°18'5 4.5
2015-Aug-17 17:19N 02°53' E 101°16'6 2.0
2015-Aug-17 14:32N 02°48' E 101°18'0 0.1
2015-Aug-17 12:26N 02°47' E 101°18'0 0.1
2015-Aug-17 09:32N 02°48' E 101°18'0 0.0
2015-Aug-17 07:32N 02°48' E 101°18'0 0.0
2015-Aug-17 05:32N 02°48' E 101°18'0 0.0
2015-Aug-17 03:29N 02°48' E 101°18'0 0.1
2015-Aug-17 00:32N 02°47' E 101°18'0 0.0
2015-Aug-16 22:29N 02°47' E 101°18'0 0.1
2015-Aug-16 19:32N 02°48' E 101°18'0 0.0
2015-Aug-16 17:29N 02°48' E 101°18'0 0.0
2015-Aug-16 15:29N 02°48' E 101°18'0 0.1
2015-Aug-16 13:32N 02°47' E 101°18'0 0.0
2015-Aug-16 11:32N 02°47' E 101°18'0 0.0
2015-Aug-16 09:32N 02°47' E 101°18'0 0.1
2015-Aug-16 07:32N 02°48' E 101°18'0 0.0
2015-Aug-16 04:32N 02°48' E 101°18'0 0.0
2015-Aug-16 02:32N 02°48' E 101°18'0 0.1
2015-Aug-16 01:29N 02°47' E 101°18'0 0.0
2015-Aug-15 23:32N 02°47' E 101°18'0 0.1
2015-Aug-15 21:32N 02°47' E 101°18'0 0.0
2015-Aug-15 18:29N 02°48' E 101°18'0 0.0
2015-Aug-15 16:29N 02°48' E 101°18'0 0.0
2015-Aug-15 14:32N 02°48' E 101°18'0 0.1
2015-Aug-15 12:29N 02°47' E 101°18'0 0.0
2015-Aug-15 09:29N 02°47' E 101°18'0 0.1
2015-Aug-15 07:29N 02°48' E 101°18'0 0.0
2015-Aug-15 04:29N 02°48' E 101°18'0 0.0
2015-Aug-15 01:32N 02°48' E 101°18'172 5.2
2015-Aug-13 16:33N 01°14' E 103°41'5 4.6
2015-Aug-13 15:33N 01°18' E 103°43'0 0.1
2015-Aug-13 14:33N 01°18' E 103°43'0 0.0
2015-Aug-13 13:33N 01°18' E 103°43'0 0.0
2015-Aug-13 12:31N 01°18' E 103°43'0 0.0
2015-Aug-13 11:31N 01°18' E 103°43'0 0.0
2015-Aug-13 09:33N 01°18' E 103°43'0 0.0
2015-Aug-13 08:33N 01°18' E 103°43'0 0.0
2015-Aug-13 07:32N 01°18' E 103°43'0 0.0
2015-Aug-13 06:32N 01°18' E 103°43'0 0.0
2015-Aug-13 02:07N 01°18' E 103°43'0 0.0
2015-Aug-13 00:30N 01°18' E 103°43'0 0.0
2015-Aug-12 23:06N 01°18' E 103°43'0 0.0
2015-Aug-12 22:30N 01°18' E 103°43'0 0.0
2015-Aug-12 21:33N 01°18' E 103°43'0 0.0
2015-Aug-12 20:33N 01°18' E 103°43'0 0.0
2015-Aug-12 19:24N 01°18' E 103°43'0 0.0
2015-Aug-12 18:18N 01°18' E 103°43'0 0.0
2015-Aug-12 17:30N 01°18' E 103°43'0 0.0
2015-Aug-12 16:30N 01°18' E 103°43'0 0.0
2015-Aug-12 15:24N 01°18' E 103°43'0 0.0
2015-Aug-12 14:24N 01°18' E 103°43'0 0.0
2015-Aug-12 13:30N 01°18' E 103°43'0 0.0
2015-Aug-12 11:30N 01°18' E 103°43'0 0.0
2015-Aug-12 10:30N 01°18' E 103°43'0 0.0
2015-Aug-12 09:03N 01°18' E 103°43'0 0.0
2015-Aug-12 08:30N 01°18' E 103°43'0 0.0
2015-Aug-12 07:30N 01°18' E 103°43'0 0.0
2015-Aug-12 06:32N 01°18' E 103°43'0 0.0
2015-Aug-12 04:19N 01°18' E 103°43'0 0.0
2015-Aug-12 03:26N 01°18' E 103°43'0 0.0
2015-Aug-12 02:32N 01°18' E 103°43'0 0.0
2015-Aug-12 01:11N 01°18' E 103°43'0 0.2
2015-Aug-12 00:33N 01°18' E 103°43'6 5.7
2015-Aug-11 23:33N 01°14' E 103°47'4 3.8
2015-Aug-11 22:33N 01°16' E 103°50'0 0.4
2015-Aug-11 21:30N 01°16' E 103°50'0 0.0
2015-Aug-11 20:33N 01°16' E 103°50'0 0.1
2015-Aug-11 19:30N 01°16' E 103°50'0 0.1
2015-Aug-11 18:30N 01°16' E 103°50'0 0.0
2015-Aug-11 17:33N 01°16' E 103°50'0 0.0
2015-Aug-11 16:33N 01°16' E 103°50'0 0.0
2015-Aug-11 15:33N 01°16' E 103°50'0 0.0
2015-Aug-11 14:33N 01°16' E 103°50'0 0.0
2015-Aug-11 13:27N 01°16' E 103°50'0 0.0
2015-Aug-11 12:24N 01°16' E 103°50'0 0.0
2015-Aug-11 11:33N 01°16' E 103°50'0 0.0
2015-Aug-11 10:30N 01°16' E 103°50'2 1.9
2015-Aug-11 09:33N 01°15' E 103°52'4 4.0
2015-Aug-11 08:33N 01°14' E 103°55'  
Track history (hours):
 
Tides and Currents Weather Stations Pressure Air Temp Water Temp Dewpoint Dewpoint Depression Visibility Wind Speed Wind Dir Waves Ship Positions

Tasman Mariner

Last reported at 2015-Aug-19 21:19 UTC. Time now 2015-Aug-30 07:55 UTC.
Position N 01°15' E 104°04'.
Warning: this ship's position is 10 days out of date.

Length 184 m; beam 27 m; draft 10 m.

Type: Cargo ship. MMSI: 477860000.

Date/timePositionNaut miles runAvg speedWind from/ knotsBaromVisibWave heightAir tempDewpointWater temp
2015-Aug-19 21:19N 01°15' E 104°04'1215.5
2015-Aug-19 20:33N 01°12' E 103°52'15115.1
2015-Aug-19 10:33N 02°23' E 101°39'3015.2
2015-Aug-19 08:34N 02°41' E 101°15'17 8.1
2015-Aug-19 06:31N 02°57' E 101°18'0 0.0
2015-Aug-19 04:31N 02°57' E 101°18'0 0.0
2015-Aug-19 01:31N 02°57' E 101°18'0 0.0
2015-Aug-18 23:31N 02°57' E 101°18'0 0.0
2015-Aug-18 21:31N 02°57' E 101°18'0 0.0
2015-Aug-18 19:31N 02°57' E 101°18'0 0.0
2015-Aug-18 17:28N 02°57' E 101°18'0 0.0
2015-Aug-18 14:31N 02°57' E 101°18'0 0.0
2015-Aug-18 09:28N 02°57' E 101°18'0 0.0
2015-Aug-18 07:31N 02°57' E 101°18'0 0.0
2015-Aug-18 04:25N 02°57' E 101°18'0 0.0
2015-Aug-18 04:10N 02°57' E 101°18'0 0.0
2015-Aug-18 03:22N 02°57' E 101°18'0 0.0
2015-Aug-18 01:31N 02°57' E 101°18'0 0.0
2015-Aug-17 23:31N 02°57' E 101°18'0 0.0
2015-Aug-17 20:31N 02°57' E 101°18'0 0.0
2015-Aug-17 18:28N 02°57' E 101°18'5 4.5
2015-Aug-17 17:19N 02°53' E 101°16'6 2.0
2015-Aug-17 14:32N 02°48' E 101°18'0 0.1
2015-Aug-17 12:26N 02°47' E 101°18'0 0.1
2015-Aug-17 09:32N 02°48' E 101°18'0 0.0
2015-Aug-17 07:32N 02°48' E 101°18'0 0.0
2015-Aug-17 05:32N 02°48' E 101°18'0 0.0
2015-Aug-17 03:29N 02°48' E 101°18'0 0.1
2015-Aug-17 00:32N 02°47' E 101°18'0 0.0
2015-Aug-16 22:29N 02°47' E 101°18'0 0.1
2015-Aug-16 19:32N 02°48' E 101°18'0 0.0
2015-Aug-16 17:29N 02°48' E 101°18'0 0.0
2015-Aug-16 15:29N 02°48' E 101°18'0 0.1
2015-Aug-16 13:32N 02°47' E 101°18'0 0.0
2015-Aug-16 11:32N 02°47' E 101°18'0 0.0
2015-Aug-16 09:32N 02°47' E 101°18'0 0.1
2015-Aug-16 07:32N 02°48' E 101°18'0 0.0
2015-Aug-16 04:32N 02°48' E 101°18'0 0.0
2015-Aug-16 02:32N 02°48' E 101°18'0 0.1
2015-Aug-16 01:29N 02°47' E 101°18'0 0.0
2015-Aug-15 23:32N 02°47' E 101°18'0 0.1
2015-Aug-15 21:32N 02°47' E 101°18'0 0.0
2015-Aug-15 18:29N 02°48' E 101°18'0 0.0
2015-Aug-15 16:29N 02°48' E 101°18'0 0.0
2015-Aug-15 14:32N 02°48' E 101°18'0 0.1
2015-Aug-15 12:29N 02°47' E 101°18'0 0.0
2015-Aug-15 09:29N 02°47' E 101°18'0 0.1
2015-Aug-15 07:29N 02°48' E 101°18'0 0.0
2015-Aug-15 04:29N 02°48' E 101°18'0 0.0
2015-Aug-15 01:32N 02°48' E 101°18'172 5.2
2015-Aug-13 16:33N 01°14' E 103°41'5 4.6
2015-Aug-13 15:33N 01°18' E 103°43'0 0.1
2015-Aug-13 14:33N 01°18' E 103°43'0 0.0
2015-Aug-13 13:33N 01°18' E 103°43'0 0.0
2015-Aug-13 12:31N 01°18' E 103°43'0 0.0
2015-Aug-13 11:31N 01°18' E 103°43'0 0.0
2015-Aug-13 09:33N 01°18' E 103°43'0 0.0
2015-Aug-13 08:33N 01°18' E 103°43'0 0.0
2015-Aug-13 07:32N 01°18' E 103°43'0 0.0
2015-Aug-13 06:32N 01°18' E 103°43'0 0.0
2015-Aug-13 02:07N 01°18' E 103°43'0 0.0
2015-Aug-13 00:30N 01°18' E 103°43'0 0.0
2015-Aug-12 23:06N 01°18' E 103°43'0 0.0
2015-Aug-12 22:30N 01°18' E 103°43'0 0.0
2015-Aug-12 21:33N 01°18' E 103°43'0 0.0
2015-Aug-12 20:33N 01°18' E 103°43'0 0.0
2015-Aug-12 19:24N 01°18' E 103°43'0 0.0
2015-Aug-12 18:18N 01°18' E 103°43'0 0.0
2015-Aug-12 17:30N 01°18' E 103°43'0 0.0
2015-Aug-12 16:30N 01°18' E 103°43'0 0.0
2015-Aug-12 15:24N 01°18' E 103°43'0 0.0
2015-Aug-12 14:24N 01°18' E 103°43'0 0.0
2015-Aug-12 13:30N 01°18' E 103°43'0 0.0
2015-Aug-12 11:30N 01°18' E 103°43'0 0.0
2015-Aug-12 10:30N 01°18' E 103°43'0 0.0
2015-Aug-12 09:03N 01°18' E 103°43'0 0.0
2015-Aug-12 08:30N 01°18' E 103°43'0 0.0
2015-Aug-12 07:30N 01°18' E 103°43'0 0.0
2015-Aug-12 06:32N 01°18' E 103°43'0 0.0
2015-Aug-12 04:19N 01°18' E 103°43'0 0.0
2015-Aug-12 03:26N 01°18' E 103°43'0 0.0
2015-Aug-12 02:32N 01°18' E 103°43'0 0.0
2015-Aug-12 01:11N 01°18' E 103°43'0 0.2
2015-Aug-12 00:33N 01°18' E 103°43'6 5.7
2015-Aug-11 23:33N 01°14' E 103°47'4 3.8
2015-Aug-11 22:33N 01°16' E 103°50'0 0.4
2015-Aug-11 21:30N 01°16' E 103°50'0 0.0
2015-Aug-11 20:33N 01°16' E 103°50'0 0.1
2015-Aug-11 19:30N 01°16' E 103°50'0 0.1
2015-Aug-11 18:30N 01°16' E 103°50'0 0.0
2015-Aug-11 17:33N 01°16' E 103°50'0 0.0
2015-Aug-11 16:33N 01°16' E 103°50'0 0.0
2015-Aug-11 15:33N 01°16' E 103°50'0 0.0
2015-Aug-11 14:33N 01°16' E 103°50'0 0.0
2015-Aug-11 13:27N 01°16' E 103°50'0 0.0
2015-Aug-11 12:24N 01°16' E 103°50'0 0.0
2015-Aug-11 11:33N 01°16' E 103°50'0 0.0
2015-Aug-11 10:30N 01°16' E 103°50'2 1.9
2015-Aug-11 09:33N 01°15' E 103°52'4 4.0
2015-Aug-11 08:33N 01°14' E 103°55'  

Dump ship's entire track history